Time,TemperatureF,DewpointF,PressureIn,WindDirection,WindDirectionDegrees,WindSpeedMPH,WindSpeedGustMPH,Humidity,HourlyPrecipIn,Conditions,Clouds,dailyrainin,SoftwareType,DateUTC
2013-04-24 00:02:00,34.1,33.0,29.08,NNE,18,0.0,1.0,97,0.00,,,0.00,weatherlink.com 1.10,2013-04-24 04:02:00,
2013-04-24 00:17:00,34.6,34.0,29.07,North,6,0.0,2.0,97,0.00,,,0.00,weatherlink.com 1.10,2013-04-24 04:17:00,
2013-04-24 00:32:00,35.0,34.0,29.07,ESE,110,0.0,1.0,97,0.00,,,0.00,weatherlink.com 1.10,2013-04-24 04:32:00,
2013-04-24 00:47:00,34.9,34.0,29.05,ESE,112,0.0,0.0,97,0.00,,,0.00,weatherlink.com 1.10,2013-04-24 04:47:00,
2013-04-24 01:02:00,34.8,34.0,29.05,ESE,111,0.0,0.0,97,0.00,,,0.00,weatherlink.com 1.10,2013-04-24 05:02:00,
2013-04-24 01:17:00,34.2,34.0,29.05,SSE,166,0.0,1.0,97,0.00,,,0.00,weatherlink.com 1.10,2013-04-24 05:17:00,
2013-04-24 01:33:00,33.9,33.0,29.04,SSE,166,0.0,1.0,97,0.00,,,0.00,weatherlink.com 1.10,2013-04-24 05:33:00,
2013-04-24 01:48:00,33.9,33.0,29.03,SSE,166,0.0,0.0,97,0.00,,,0.00,weatherlink.com 1.10,2013-04-24 05:48:00,
2013-04-24 02:03:00,34.0,33.0,29.03,SSE,166,0.0,0.0,97,0.00,,,0.00,weatherlink.com 1.10,2013-04-24 06:03:00,
2013-04-24 02:18:00,34.2,34.0,29.02,SSE,167,0.0,1.0,97,0.00,,,0.00,weatherlink.com 1.10,2013-04-24 06:18:00,
2013-04-24 02:33:00,34.4,34.0,29.01,SSE,166,0.0,0.0,97,0.00,,,0.00,weatherlink.com 1.10,2013-04-24 06:33:00,
2013-04-24 02:48:00,34.7,34.0,29.01,SSE,165,0.0,0.0,98,0.00,,,0.00,weatherlink.com 1.10,2013-04-24 06:48:00,
2013-04-24 03:03:00,35.1,35.0,29.00,SSE,165,0.0,1.0,98,0.00,,,0.00,weatherlink.com 1.10,2013-04-24 07:03:00,
2013-04-24 03:18:00,35.4,35.0,29.00,SSE,156,0.0,1.0,98,0.00,,,0.00,weatherlink.com 1.10,2013-04-24 07:18:00,
2013-04-24 03:33:00,35.9,35.0,29.00,SSW,200,0.0,2.0,98,0.00,,,0.00,weatherlink.com 1.10,2013-04-24 07:33:00,
2013-04-24 03:48:00,36.0,36.0,29.00,South,177,0.0,2.0,98,0.00,,,0.00,weatherlink.com 1.10,2013-04-24 07:48:00,
2013-04-24 04:03:00,36.1,36.0,28.99,South,183,0.0,1.0,98,0.00,,,0.00,weatherlink.com 1.10,2013-04-24 08:03:00,
2013-04-24 04:18:00,36.2,36.0,28.99,SSW,208,0.0,1.0,98,0.00,,,0.00,weatherlink.com 1.10,2013-04-24 08:18:00,
2013-04-24 04:33:00,36.3,36.0,28.98,SSW,208,0.0,0.0,98,0.00,,,0.00,weatherlink.com 1.10,2013-04-24 08:33:00,
2013-04-24 04:48:00,36.3,36.0,28.97,SSW,208,0.0,0.0,98,0.00,,,0.00,weatherlink.com 1.10,2013-04-24 08:48:00,
2013-04-24 05:03:00,36.0,36.0,28.96,SSW,208,0.0,0.0,98,0.00,,,0.00,weatherlink.com 1.10,2013-04-24 09:03:00,
2013-04-24 05:18:00,36.1,36.0,28.96,SSW,208,0.0,0.0,98,0.00,,,0.00,weatherlink.com 1.10,2013-04-24 09:18:00,
2013-04-24 05:33:00,36.3,36.0,28.96,SSW,200,0.0,2.0,98,0.00,,,0.00,weatherlink.com 1.10,2013-04-24 09:33:00,
2013-04-24 05:48:00,36.3,36.0,28.96,SW,226,0.0,1.0,98,0.00,,,0.00,weatherlink.com 1.10,2013-04-24 09:48:00,
2013-04-24 06:03:00,36.2,36.0,28.97,SSW,201,1.0,1.0,98,0.00,,,0.00,weatherlink.com 1.10,2013-04-24 10:03:00,
2013-04-24 06:18:00,35.7,35.0,28.96,SSW,207,1.0,1.0,98,0.00,,,0.00,weatherlink.com 1.10,2013-04-24 10:18:00,
2013-04-24 06:33:00,35.3,35.0,28.96,SSW,208,1.0,1.0,98,0.00,,,0.00,weatherlink.com 1.10,2013-04-24 10:33:00,
2013-04-24 06:48:00,35.5,35.0,28.97,SSW,211,0.0,3.0,98,0.00,,,0.00,weatherlink.com 1.10,2013-04-24 10:48:00,
2013-04-24 07:03:00,36.4,36.0,28.97,WSW,239,0.0,2.0,98,0.00,,,0.00,weatherlink.com 1.10,2013-04-24 11:03:00,
2013-04-24 07:18:00,39.0,39.0,28.97,SW,228,1.0,2.0,98,0.00,,,0.00,weatherlink.com 1.10,2013-04-24 11:18:00,
2013-04-24 07:33:00,39.6,39.0,28.96,SW,224,0.0,3.0,98,0.00,,,0.00,weatherlink.com 1.10,2013-04-24 11:33:00,
2013-04-24 07:48:00,41.3,41.0,28.96,West,274,1.0,3.0,98,0.00,,,0.00,weatherlink.com 1.10,2013-04-24 11:48:00,
2013-04-24 08:04:00,41.9,41.0,28.95,SSW,210,1.0,3.0,98,0.00,,,0.00,weatherlink.com 1.10,2013-04-24 12:04:00,
2013-04-24 08:18:00,42.3,42.0,28.95,SSW,200,1.0,4.0,98,0.00,,,0.00,weatherlink.com 1.10,2013-04-24 12:18:00,
2013-04-24 08:33:00,43.5,43.0,28.95,SW,217,0.0,2.0,98,0.00,,,0.00,weatherlink.com 1.10,2013-04-24 12:33:00,
2013-04-24 08:48:00,45.5,44.0,28.94,SE,144,0.0,2.0,93,0.00,,,0.00,weatherlink.com 1.10,2013-04-24 12:48:00,
2013-04-24 09:04:00,47.2,44.0,28.93,SSE,164,1.0,4.0,89,0.00,,,0.00,weatherlink.com 1.10,2013-04-24 13:04:00,
2013-04-24 09:19:00,48.6,44.0,28.93,SW,232,1.0,4.0,85,0.00,,,0.00,weatherlink.com 1.10,2013-04-24 13:19:00,
2013-04-24 09:34:00,49.6,44.0,28.92,SW,235,0.0,3.0,80,0.00,,,0.00,weatherlink.com 1.10,2013-04-24 13:34:00,
2013-04-24 09:49:00,51.5,43.0,28.91,East,96,2.0,4.0,74,0.00,,,0.00,weatherlink.com 1.10,2013-04-24 13:49:00,
2013-04-24 10:04:00,52.8,45.0,28.91,SSW,208,2.0,2.0,75,0.00,,,0.00,weatherlink.com 1.10,2013-04-24 14:04:00,
2013-04-24 10:19:00,53.4,45.0,28.90,SSE,166,1.0,4.0,72,0.00,,,0.00,weatherlink.com 1.10,2013-04-24 14:19:00,
2013-04-24 10:34:00,54.5,45.0,28.90,SSE,155,2.0,5.0,70,0.00,,,0.00,weatherlink.com 1.10,2013-04-24 14:34:00,
2013-04-24 10:49:00,55.8,45.0,28.90,SE,134,1.0,4.0,67,0.00,,,0.00,weatherlink.com 1.10,2013-04-24 14:49:00,
2013-04-24 11:04:00,56.8,44.0,28.90,SSW,209,1.0,5.0,62,0.00,,,0.00,weatherlink.com 1.10,2013-04-24 15:04:00,
2013-04-24 11:19:00,58.1,45.0,28.89,ESE,103,1.0,4.0,61,0.00,,,0.00,weatherlink.com 1.10,2013-04-24 15:19:00,
2013-04-24 11:34:00,59.3,44.0,28.88,NNE,32,1.0,4.0,57,0.00,,,0.00,weatherlink.com 1.10,2013-04-24 15:34:00,
2013-04-24 11:49:00,60.5,43.0,28.88,NNE,15,0.0,3.0,53,0.00,,,0.00,weatherlink.com 1.10,2013-04-24 15:49:00,
2013-04-24 12:04:00,62.0,42.0,28.86,SW,222,0.0,4.0,48,0.00,,,0.00,weatherlink.com 1.10,2013-04-24 16:04:00,
2013-04-24 12:20:00,62.1,37.0,28.85,East,84,2.0,6.0,40,0.00,,,0.00,weatherlink.com 1.10,2013-04-24 16:20:00,
2013-04-24 12:34:00,63.5,36.0,28.85,NNW,335,0.0,5.0,36,0.00,,,0.00,weatherlink.com 1.10,2013-04-24 16:34:00,
2013-04-24 12:50:00,65.4,30.0,28.83,NNE,32,4.0,9.0,27,0.00,,,0.00,weatherlink.com 1.10,2013-04-24 16:50:00,
2013-04-24 13:05:00,65.4,23.0,28.83,ENE,70,6.0,7.0,20,0.00,,,0.00,weatherlink.com 1.10,2013-04-24 17:05:00,
2013-04-24 13:20:00,65.6,24.0,28.82,ENE,72,1.0,6.0,21,0.00,,,0.00,weatherlink.com 1.10,2013-04-24 17:20:00,
2013-04-24 13:35:00,66.8,27.0,28.80,East,101,1.0,6.0,22,0.00,,,0.00,weatherlink.com 1.10,2013-04-24 17:35:00,
2013-04-24 13:50:00,67.3,31.0,28.79,East,90,2.0,5.0,26,0.00,,,0.00,weatherlink.com 1.10,2013-04-24 17:50:00,
2013-04-24 14:05:00,67.9,31.0,28.78,NE,35,1.0,4.0,25,0.00,,,0.00,weatherlink.com 1.10,2013-04-24 18:05:00,
2013-04-24 14:20:00,68.6,32.0,28.77,NE,44,4.0,9.0,26,0.00,,,0.00,weatherlink.com 1.10,2013-04-24 18:20:00,
2013-04-24 14:35:00,70.1,34.0,28.77,NE,41,6.0,8.0,27,0.00,,,0.00,weatherlink.com 1.10,2013-04-24 18:35:00,
2013-04-24 14:50:00,69.6,34.0,28.77,NNW,334,2.0,9.0,27,0.00,,,0.00,weatherlink.com 1.10,2013-04-24 18:50:00,
2013-04-24 15:05:00,70.9,36.0,28.77,East,96,6.0,8.0,28,0.00,,,0.00,weatherlink.com 1.10,2013-04-24 19:05:00,
2013-04-24 15:20:00,71.2,37.0,28.76,ENE,66,3.0,8.0,29,0.00,,,0.00,weatherlink.com 1.10,2013-04-24 19:20:00,
2013-04-24 15:35:00,70.1,36.0,28.75,NW,306,3.0,9.0,29,0.00,,,0.00,weatherlink.com 1.10,2013-04-24 19:35:00,
2013-04-24 15:50:00,69.3,36.0,28.75,NE,53,6.0,12.0,29,0.00,,,0.00,weatherlink.com 1.10,2013-04-24 19:50:00,
2013-04-24 16:05:00,70.0,37.0,28.74,NNE,25,8.0,11.0,30,0.00,,,0.00,weatherlink.com 1.10,2013-04-24 20:05:00,
2013-04-24 16:20:00,69.9,36.0,28.73,NE,49,3.0,11.0,29,0.00,,,0.00,weatherlink.com 1.10,2013-04-24 20:20:00,
2013-04-24 16:35:00,71.0,37.0,28.73,NE,44,7.0,10.0,29,0.00,,,0.00,weatherlink.com 1.10,2013-04-24 20:35:00,
2013-04-24 16:50:00,70.6,38.0,28.73,NE,46,5.0,10.0,30,0.00,,,0.00,weatherlink.com 1.10,2013-04-24 20:50:00,
2013-04-24 17:05:00,70.3,37.0,28.73,NE,44,6.0,17.0,30,0.00,,,0.00,weatherlink.com 1.10,2013-04-24 21:05:00,
2013-04-24 17:20:00,70.1,38.0,28.73,NE,56,8.0,11.0,31,0.00,,,0.00,weatherlink.com 1.10,2013-04-24 21:20:00,
2013-04-24 17:36:00,69.6,38.0,28.73,NE,44,9.0,16.0,32,0.00,,,0.00,weatherlink.com 1.10,2013-04-24 21:36:00,
2013-04-24 17:50:00,68.3,39.0,28.73,ENE,60,7.0,15.0,34,0.00,,,0.00,weatherlink.com 1.10,2013-04-24 21:50:00,
2013-04-24 18:05:00,67.2,40.0,28.72,NE,47,12.0,15.0,37,0.00,,,0.00,weatherlink.com 1.10,2013-04-24 22:05:00,
2013-04-24 18:20:00,66.8,40.0,28.72,ENE,65,8.0,15.0,38,0.00,,,0.00,weatherlink.com 1.10,2013-04-24 22:20:00,
2013-04-24 18:35:00,66.2,42.0,28.71,NE,49,7.0,18.0,41,0.00,,,0.00,weatherlink.com 1.10,2013-04-24 22:35:00,
2013-04-24 18:50:00,65.4,42.0,28.70,NE,43,7.0,16.0,42,0.00,,,0.00,weatherlink.com 1.10,2013-04-24 22:50:00,
2013-04-24 19:05:00,64.7,42.0,28.71,NE,50,13.0,14.0,44,0.00,,,0.00,weatherlink.com 1.10,2013-04-24 23:05:00,
2013-04-24 19:20:00,63.8,42.0,28.70,NE,46,3.0,10.0,45,0.00,,,0.00,weatherlink.com 1.10,2013-04-24 23:20:00,
2013-04-24 19:35:00,63.1,42.0,28.70,NE,53,5.0,8.0,47,0.00,,,0.00,weatherlink.com 1.10,2013-04-24 23:35:00,
2013-04-24 19:50:00,62.5,42.0,28.70,ENE,60,5.0,10.0,48,0.00,,,0.00,weatherlink.com 1.10,2013-04-24 23:50:00,
2013-04-24 20:05:00,62.2,43.0,28.69,NE,44,4.0,12.0,49,0.00,,,0.00,weatherlink.com 1.10,2013-04-25 00:05:00,
2013-04-24 20:20:00,61.6,43.0,28.68,NNE,33,11.0,11.0,50,0.00,,,0.00,weatherlink.com 1.10,2013-04-25 00:20:00,
2013-04-24 20:35:00,61.2,43.0,28.69,NNE,28,4.0,14.0,51,0.00,,,0.00,weatherlink.com 1.10,2013-04-25 00:35:00,
2013-04-24 20:50:00,60.5,43.0,28.70,NE,43,3.0,11.0,53,0.00,,,0.00,weatherlink.com 1.10,2013-04-25 00:50:00,
2013-04-24 21:05:00,60.7,43.0,28.70,NE,53,9.0,13.0,53,0.00,,,0.00,weatherlink.com 1.10,2013-04-25 01:05:00,
2013-04-24 21:20:00,60.5,43.0,28.70,NNE,33,9.0,15.0,53,0.00,,,0.00,weatherlink.com 1.10,2013-04-25 01:20:00,
2013-04-24 21:35:00,60.1,44.0,28.69,NE,44,14.0,17.0,55,0.00,,,0.00,weatherlink.com 1.10,2013-04-25 01:35:00,
2013-04-24 21:50:00,59.5,44.0,28.69,NE,44,10.0,16.0,56,0.00,,,0.00,weatherlink.com 1.10,2013-04-25 01:50:00,
2013-04-24 22:05:00,59.4,44.0,28.69,NE,46,13.0,17.0,58,0.00,,,0.00,weatherlink.com 1.10,2013-04-25 02:05:00,
2013-04-24 22:20:00,59.2,46.0,28.68,ENE,58,13.0,15.0,61,0.00,,,0.00,weatherlink.com 1.10,2013-04-25 02:20:00,
2013-04-24 22:35:00,58.6,46.0,28.68,NNE,32,5.0,12.0,63,0.00,,,0.00,weatherlink.com 1.10,2013-04-25 02:35:00,
2013-04-24 22:51:00,58.5,47.0,28.68,ENE,70,6.0,16.0,65,0.00,,,0.00,weatherlink.com 1.10,2013-04-25 02:51:00,
2013-04-24 23:21:00,57.4,48.0,28.66,NNE,32,12.0,18.0,70,0.00,,,0.00,weatherlink.com 1.10,2013-04-25 03:21:00,
2013-04-24 23:36:00,56.5,48.0,28.65,NE,47,18.0,19.0,73,0.00,,,0.00,weatherlink.com 1.10,2013-04-25 03:36:00,
2013-04-24 23:51:00,55.7,48.0,28.65,NE,46,11.0,22.0,76,0.00,,,0.00,weatherlink.com 1.10,2013-04-25 03:51:00,